createdAt,value
2023-05-06T00:01:46.468Z,83.03
2023-05-06T00:04:34.884Z,83.09
2023-05-06T00:07:23.387Z,82.85
2023-05-06T00:10:11.802Z,82.88
2023-05-06T00:13:01.694Z,82.86
2023-05-06T00:15:50.183Z,82.84
2023-05-06T00:18:38.536Z,82.82
2023-05-06T00:21:28.300Z,82.94
2023-05-06T00:24:16.681Z,83.06
2023-05-06T00:27:05.084Z,82.89
2023-05-06T00:29:54.865Z,83.31
2023-05-06T00:32:43.381Z,83.13
2023-05-06T00:35:31.873Z,82.86
2023-05-06T00:38:20.543Z,83.58
2023-05-06T00:41:09.981Z,83.95
2023-05-06T00:43:58.420Z,84.05
2023-05-06T00:46:48.199Z,83.57
2023-05-06T00:49:36.617Z,83.97
2023-05-06T00:52:25.057Z,83.50
2023-05-06T00:55:13.464Z,83.64
2023-05-06T00:58:02.092Z,84.06
2023-05-06T01:00:52.335Z,84.24
2023-05-06T01:03:42.317Z,85.20
2023-05-06T01:06:35.878Z,85.14
2023-05-06T01:09:29.867Z,84.90
2023-05-06T01:12:22.431Z,83.83
2023-05-06T01:15:15.095Z,84.09
2023-05-06T01:18:07.843Z,84.36
2023-05-06T01:20:57.998Z,85.63
2023-05-06T01:23:53.399Z,85.32
2023-05-06T01:26:42.999Z,84.91
2023-05-06T01:29:31.501Z,85.03
2023-05-06T01:32:27.664Z,84.78
2023-05-06T01:35:19.128Z,84.76
2023-05-06T01:38:15.585Z,84.93
2023-05-06T01:41:05.843Z,84.54
2023-05-06T01:43:55.297Z,84.79
2023-05-06T01:46:44.501Z,85.06
2023-05-06T01:49:34.139Z,84.81
2023-05-06T01:52:22.944Z,84.68
2023-05-06T01:55:11.992Z,84.19
2023-05-06T01:58:02.470Z,84.26
2023-05-06T02:00:50.885Z,83.99
2023-05-06T02:03:39.459Z,85.26
2023-05-06T02:06:28.079Z,85.10
2023-05-06T02:09:16.607Z,85.14
2023-05-06T02:12:11.657Z,84.51
2023-05-06T02:15:01.437Z,85.33
2023-05-06T02:17:50.314Z,87.31
2023-05-06T02:20:38.887Z,87.12
2023-05-06T02:23:27.682Z,87.81
2023-05-06T02:26:16.515Z,87.37
2023-05-06T02:29:04.927Z,87.23
2023-05-06T02:31:54.759Z,86.60
2023-05-06T02:34:43.126Z,87.42
2023-05-06T02:37:31.514Z,87.41
2023-05-06T02:40:21.883Z,88.28
2023-05-06T02:43:10.256Z,87.79
2023-05-06T02:46:18.262Z,88.54
2023-05-06T02:49:27.010Z,88.64
2023-05-06T02:52:15.518Z,87.99
2023-05-06T02:55:04.176Z,87.73
2023-05-06T02:57:52.571Z,87.50
2023-05-06T03:00:40.939Z,86.66
2023-05-06T03:03:29.352Z,86.33
2023-05-06T03:06:19.130Z,85.87
2023-05-06T03:09:08.691Z,86.28
2023-05-06T03:11:57.858Z,86.09
2023-05-06T03:14:46.415Z,86.62
2023-05-06T03:17:34.854Z,87.08
2023-05-06T03:20:25.819Z,86.81
2023-05-06T03:23:18.471Z,87.45
2023-05-06T03:26:08.666Z,88.80
2023-05-06T03:28:57.548Z,88.28
2023-05-06T03:31:46.585Z,89.92
2023-05-06T03:34:35.084Z,90.04
2023-05-06T03:37:23.759Z,89.47
2023-05-06T03:40:17.638Z,88.69
2023-05-06T03:43:06.597Z,88.14
2023-05-06T03:45:55.429Z,87.79
2023-05-06T03:48:44.699Z,87.64
2023-05-06T03:51:36.560Z,87.25
2023-05-06T03:54:25.425Z,86.96
2023-05-06T03:57:15.358Z,87.17
2023-05-06T04:00:05.507Z,86.86
2023-05-06T04:03:04.604Z,87.34
2023-05-06T04:06:00.943Z,87.66
2023-05-06T04:08:49.610Z,87.74
2023-05-06T04:11:39.481Z,87.81
2023-05-06T04:14:31.941Z,88.15
2023-05-06T04:17:20.884Z,87.94
2023-05-06T04:20:11.946Z,87.11
2023-05-06T04:23:02.776Z,87.56
2023-05-06T04:25:51.419Z,87.30
2023-05-06T04:28:41.862Z,87.62
2023-05-06T04:31:34.434Z,88.30
2023-05-06T04:34:27.786Z,88.20
2023-05-06T04:37:18.908Z,88.13
2023-05-06T04:40:13.750Z,88.27
2023-05-06T04:43:05.238Z,88.24
2023-05-06T04:45:54.386Z,87.45
2023-05-06T04:48:49.006Z,87.44
2023-05-06T04:51:38.286Z,87.77
2023-05-06T04:54:27.089Z,87.83
2023-05-06T04:57:15.479Z,88.52
2023-05-06T05:00:07.831Z,87.97
2023-05-06T05:02:56.504Z,88.49
2023-05-06T05:05:46.220Z,88.43
2023-05-06T05:08:40.875Z,88.49
2023-05-06T05:11:30.497Z,88.94
2023-05-06T05:14:20.513Z,88.11
2023-05-06T05:17:09.045Z,88.35
2023-05-06T05:19:58.983Z,87.70
2023-05-06T05:22:49.963Z,87.17
2023-05-06T05:25:38.469Z,87.45
2023-05-06T05:28:27.498Z,87.72
2023-05-06T05:31:17.068Z,88.70
2023-05-06T05:34:06.071Z,88.94
2023-05-06T05:36:54.400Z,91.32
2023-05-06T05:39:44.202Z,91.60
2023-05-06T05:42:34.104Z,93.04
2023-05-06T05:45:27.822Z,92.57
2023-05-06T05:48:17.369Z,91.57
2023-05-06T05:51:06.936Z,91.62
2023-05-06T05:53:55.392Z,92.01
2023-05-06T05:56:47.204Z,91.66
2023-05-06T05:59:37.528Z,91.98
2023-05-06T06:02:27.154Z,92.70
2023-05-06T06:05:15.554Z,91.83
2023-05-06T06:08:04.090Z,92.02
2023-05-06T06:10:53.441Z,91.23
2023-05-06T06:13:47.481Z,91.16
2023-05-06T06:16:37.713Z,90.49
2023-05-06T06:19:26.202Z,90.43
2023-05-06T06:22:14.720Z,90.69
2023-05-06T06:25:03.183Z,90.52
2023-05-06T06:27:51.624Z,90.33
2023-05-06T06:30:41.864Z,91.22
2023-05-06T06:33:30.170Z,92.25
2023-05-06T06:36:18.504Z,91.24
2023-05-06T06:39:07.503Z,90.79
2023-05-06T06:41:57.416Z,92.32
2023-05-06T06:44:45.989Z,91.90
2023-05-06T06:47:35.776Z,90.92
2023-05-06T06:50:24.140Z,91.38
2023-05-06T06:53:12.773Z,91.47
2023-05-06T06:56:01.207Z,90.83
2023-05-06T06:58:51.212Z,91.02
2023-05-06T07:01:42.675Z,91.27
2023-05-06T07:04:32.538Z,91.52
2023-05-06T07:07:20.941Z,92.36
2023-05-06T07:10:10.015Z,91.06
2023-05-06T07:12:58.668Z,91.51
2023-05-06T07:15:47.130Z,91.26
2023-05-06T07:18:35.534Z,89.87
2023-05-06T07:21:25.356Z,89.55
2023-05-06T07:24:13.757Z,89.77
2023-05-06T07:27:02.411Z,89.76
2023-05-06T07:29:50.998Z,89.14
2023-05-06T07:32:41.052Z,89.33
2023-05-06T07:35:29.454Z,88.13
2023-05-06T07:38:19.158Z,88.39
2023-05-06T07:41:07.558Z,87.77
2023-05-06T07:43:55.930Z,86.79
2023-05-06T07:46:44.551Z,86.65
2023-05-06T07:49:34.140Z,87.39
2023-05-06T07:52:22.615Z,87.90
2023-05-06T07:55:12.706Z,85.75
2023-05-06T07:58:01.343Z,85.86
2023-05-06T08:00:49.746Z,86.24
2023-05-06T08:03:38.312Z,85.72
2023-05-06T08:06:27.149Z,86.04
2023-05-06T08:09:22.727Z,86.49
2023-05-06T08:12:38.516Z,85.79
2023-05-06T08:15:27.099Z,85.97
2023-05-06T08:18:22.309Z,85.43
2023-05-06T08:21:11.069Z,85.22
2023-05-06T08:23:59.551Z,84.80
2023-05-06T08:26:47.896Z,84.93
2023-05-06T08:29:37.637Z,85.92
2023-05-06T08:32:26.194Z,85.32
2023-05-06T08:35:14.605Z,83.96
2023-05-06T08:38:03.021Z,83.79
2023-05-06T08:40:53.815Z,83.95
2023-05-06T08:43:42.811Z,84.26
2023-05-06T08:46:32.817Z,84.04
2023-05-06T08:49:21.258Z,80.93
2023-05-06T08:52:09.825Z,82.08
2023-05-06T08:55:01.516Z,80.29
2023-05-06T08:57:50.590Z,81.23
2023-05-06T09:00:39.156Z,80.50
2023-05-06T09:03:29.050Z,78.91
2023-05-06T09:06:17.513Z,79.14
2023-05-06T09:09:06.493Z,77.05
2023-05-06T09:11:57.488Z,79.74
2023-05-06T09:14:46.719Z,79.48
2023-05-06T09:17:35.145Z,75.91
2023-05-06T09:20:24.870Z,77.43
2023-05-06T09:23:15.015Z,73.61
2023-05-06T09:26:03.418Z,76.04
2023-05-06T09:28:52.455Z,76.42
2023-05-06T09:31:44.935Z,76.93
2023-05-06T09:34:33.460Z,77.34
2023-05-06T09:37:23.221Z,77.74
2023-05-06T09:40:12.165Z,76.16
2023-05-06T09:43:01.333Z,75.70
2023-05-06T09:45:49.880Z,74.72
2023-05-06T09:48:38.688Z,73.41
2023-05-06T09:51:28.544Z,73.46
2023-05-06T09:54:18.685Z,72.12
2023-05-06T09:57:07.174Z,73.06
2023-05-06T09:59:55.658Z,74.05
2023-05-06T10:02:45.213Z,74.14
2023-05-06T10:05:33.936Z,73.25
2023-05-06T10:08:24.446Z,74.10
2023-05-06T10:11:14.775Z,76.08
2023-05-06T10:14:03.828Z,74.68
2023-05-06T10:16:52.871Z,71.86
2023-05-06T10:19:43.961Z,76.31
2023-05-06T10:22:40.034Z,71.10
2023-05-06T10:25:33.770Z,74.25
2023-05-06T10:28:29.889Z,68.33
2023-05-06T10:31:20.085Z,71.09
2023-05-06T10:34:09.021Z,71.09
2023-05-06T10:36:58.513Z,71.50
2023-05-06T10:39:47.354Z,65.89
2023-05-06T10:43:22.467Z,70.08
2023-05-06T10:46:13.996Z,66.51
2023-05-06T10:49:19.926Z,67.39
2023-05-06T10:52:14.302Z,65.35
2023-05-06T10:55:02.756Z,66.92
2023-05-06T10:57:55.685Z,69.34
2023-05-06T11:00:54.330Z,65.71
2023-05-06T11:03:45.154Z,66.34
2023-05-06T11:06:38.244Z,65.95
2023-05-06T11:09:28.533Z,65.09
2023-05-06T11:12:21.407Z,64.65
2023-05-06T11:15:25.925Z,67.90
2023-05-06T11:18:44.252Z,65.97
2023-05-06T11:21:42.033Z,65.33
2023-05-06T11:24:31.724Z,64.56
2023-05-06T11:27:22.587Z,67.04
2023-05-06T11:30:14.863Z,62.91
2023-05-06T11:33:05.673Z,65.96
2023-05-06T11:35:55.846Z,64.70
2023-05-06T11:38:45.036Z,63.93
2023-05-06T11:41:34.304Z,64.89
2023-05-06T11:44:27.032Z,63.60
2023-05-06T11:47:15.444Z,65.44
2023-05-06T11:50:07.574Z,63.16
2023-05-06T11:52:57.484Z,59.52
2023-05-06T11:55:46.111Z,57.81
2023-05-06T11:58:34.856Z,63.48
2023-05-06T12:01:23.397Z,61.87
2023-05-06T12:04:40.571Z,58.50
2023-05-06T12:07:28.954Z,61.37
2023-05-06T12:10:20.047Z,61.46
2023-05-06T12:13:08.519Z,59.09
2023-05-06T12:15:57.220Z,61.23
2023-05-06T12:18:45.817Z,59.89
2023-05-06T12:21:39.061Z,61.07
2023-05-06T12:24:30.623Z,58.42
2023-05-06T12:27:33.223Z,59.93
2023-05-06T12:30:30.352Z,60.24
2023-05-06T12:33:18.795Z,61.73
2023-05-06T12:36:10.486Z,59.22
2023-05-06T12:39:00.350Z,58.57
2023-05-06T12:41:49.202Z,60.63
2023-05-06T12:44:40.125Z,56.10
2023-05-06T12:47:28.599Z,59.59
2023-05-06T12:50:31.908Z,53.98
2023-05-06T12:53:32.271Z,56.99
2023-05-06T12:56:20.833Z,55.46
2023-05-06T12:59:09.223Z,62.10
2023-05-06T13:01:59.137Z,59.89
2023-05-06T13:04:47.602Z,58.42
2023-05-06T13:07:35.989Z,59.74
2023-05-06T13:10:24.421Z,57.18
2023-05-06T13:13:12.867Z,58.84
2023-05-06T13:16:01.564Z,60.10
2023-05-06T13:18:52.108Z,56.17
2023-05-06T13:21:40.975Z,55.41
2023-05-06T13:24:29.494Z,59.87
2023-05-06T13:27:18.012Z,53.94
2023-05-06T13:30:08.805Z,56.25
2023-05-06T13:32:57.880Z,50.55
2023-05-06T13:35:47.705Z,52.54
2023-05-06T13:38:36.064Z,52.10
2023-05-06T13:41:25.400Z,59.75
2023-05-06T13:44:13.899Z,57.05
2023-05-06T13:47:02.420Z,55.09
2023-05-06T13:49:50.855Z,55.20
2023-05-06T13:52:40.673Z,52.89
2023-05-06T13:55:29.246Z,48.62
2023-05-06T13:58:18.336Z,52.54
2023-05-06T14:01:07.318Z,55.14
2023-05-06T14:03:55.899Z,51.19
2023-05-06T14:06:44.279Z,48.76
2023-05-06T14:09:34.063Z,50.93
2023-05-06T14:12:23.242Z,52.70
2023-05-06T14:15:13.106Z,51.68
2023-05-06T14:18:01.793Z,49.99
2023-05-06T14:20:50.226Z,45.82
2023-05-06T14:23:38.830Z,47.92
2023-05-06T14:26:28.593Z,48.41
2023-05-06T14:29:16.940Z,48.61
2023-05-06T14:32:05.871Z,46.93
2023-05-06T14:34:54.343Z,43.40
2023-05-06T14:37:42.752Z,47.79
2023-05-06T14:40:31.251Z,42.89
2023-05-06T14:43:20.944Z,44.02
2023-05-06T14:46:09.410Z,39.68
2023-05-06T14:48:57.856Z,37.60
2023-05-06T14:51:48.105Z,42.35
2023-05-06T14:54:42.076Z,46.13
2023-05-06T14:57:30.597Z,43.92
2023-05-06T15:00:20.889Z,43.06
2023-05-06T15:03:09.355Z,44.23
2023-05-06T15:05:57.875Z,41.32
2023-05-06T15:08:46.589Z,40.79
2023-05-06T15:11:34.954Z,40.08
2023-05-06T15:14:23.358Z,39.88
2023-05-06T15:17:13.486Z,41.05
2023-05-06T15:20:02.015Z,39.23
2023-05-06T15:22:50.437Z,37.21
2023-05-06T15:25:39.019Z,38.18
2023-05-06T15:28:27.495Z,38.99
2023-05-06T15:31:15.941Z,38.28
2023-05-06T15:34:06.030Z,37.52
2023-05-06T15:36:54.805Z,40.20
2023-05-06T15:39:43.177Z,39.56
2023-05-06T15:42:31.685Z,38.32
2023-05-06T15:45:20.348Z,38.82
2023-05-06T15:48:08.878Z,38.32
2023-05-06T15:50:58.652Z,37.83
2023-05-06T15:53:47.170Z,38.22
2023-05-06T15:56:40.749Z,38.89
2023-05-06T15:59:29.890Z,39.45
2023-05-06T16:05:10.498Z,36.98
2023-05-06T16:08:00.353Z,37.93
2023-05-06T16:10:48.739Z,38.57
2023-05-06T16:13:37.112Z,38.83
2023-05-06T16:16:25.540Z,35.48
2023-05-06T16:19:13.991Z,38.91
2023-05-06T16:22:02.541Z,39.40
2023-05-06T16:24:52.319Z,38.06
2023-05-06T16:27:41.741Z,37.93
2023-05-06T16:30:30.110Z,36.96
2023-05-06T16:33:18.482Z,40.10
2023-05-06T16:36:07.748Z,39.88
2023-05-06T16:38:56.279Z,40.13
2023-05-06T16:41:46.512Z,40.01
2023-05-06T16:44:35.193Z,39.32
2023-05-06T16:47:24.317Z,39.90
2023-05-06T16:50:14.114Z,40.61
2023-05-06T16:53:02.533Z,40.16
2023-05-06T16:55:50.919Z,40.34
2023-05-06T16:58:40.698Z,39.77
2023-05-06T17:01:29.239Z,41.38
2023-05-06T17:04:17.721Z,40.84
2023-05-06T17:07:06.407Z,38.32
2023-05-06T17:09:54.787Z,41.60
2023-05-06T17:12:43.252Z,41.27
2023-05-06T17:15:33.098Z,40.80
2023-05-06T17:18:21.489Z,41.07
2023-05-06T17:21:09.828Z,40.97
2023-05-06T17:24:00.153Z,41.02
2023-05-06T17:26:48.510Z,42.12
2023-05-06T17:29:36.953Z,42.69
2023-05-06T17:32:26.797Z,43.18
2023-05-06T17:35:15.196Z,42.60
2023-05-06T17:38:03.529Z,42.36
2023-05-06T17:40:51.951Z,43.44
2023-05-06T17:43:40.294Z,44.88
2023-05-06T17:46:28.726Z,44.81
2023-05-06T17:49:18.404Z,44.64
2023-05-06T17:52:06.926Z,44.60
2023-05-06T17:55:11.185Z,45.28
2023-05-06T17:58:04.735Z,45.69
2023-05-06T18:00:53.132Z,46.38
2023-05-06T18:03:41.580Z,46.78
2023-05-06T18:06:31.265Z,47.72
2023-05-06T18:09:19.710Z,47.78
2023-05-06T18:12:08.417Z,48.70
2023-05-06T18:14:56.836Z,48.43
2023-05-06T18:17:46.079Z,48.00
2023-05-06T18:20:34.556Z,49.21
2023-05-06T18:23:24.261Z,49.19
2023-05-06T18:26:12.601Z,49.05
2023-05-06T18:29:03.118Z,49.45
2023-05-06T18:31:51.477Z,50.03
2023-05-06T18:34:40.685Z,50.93
2023-05-06T18:37:29.444Z,51.89
2023-05-06T18:40:19.425Z,52.30
2023-05-06T18:43:08.161Z,52.85
2023-05-06T18:45:56.632Z,53.65
2023-05-06T18:48:45.136Z,54.04
2023-05-06T18:51:33.539Z,54.77
2023-05-06T18:54:21.957Z,54.59
2023-05-06T18:57:12.188Z,55.34
2023-05-06T19:00:00.670Z,54.76
2023-05-06T19:02:49.188Z,55.46
2023-05-06T19:05:37.981Z,56.17
2023-05-06T19:08:26.307Z,56.68
2023-05-06T19:11:16.216Z,57.35
2023-05-06T19:14:05.945Z,57.47
2023-05-06T19:16:54.594Z,58.06
2023-05-06T19:19:45.694Z,58.30
2023-05-06T19:22:34.375Z,58.89
2023-05-06T19:25:22.704Z,59.15
2023-05-06T19:28:11.022Z,59.49
2023-05-06T19:31:00.874Z,60.54
2023-05-06T19:33:49.253Z,60.75
2023-05-06T19:36:37.610Z,60.95
2023-05-06T19:39:26.211Z,61.30
2023-05-06T19:42:15.185Z,61.57
2023-05-06T19:45:07.936Z,61.97
2023-05-06T19:47:58.146Z,62.08
2023-05-06T19:50:46.814Z,62.58
2023-05-06T19:53:35.761Z,62.50
2023-05-06T19:56:24.178Z,62.76
2023-05-06T19:59:12.994Z,63.00
2023-05-06T20:02:01.854Z,62.80
2023-05-06T20:04:51.616Z,63.04
2023-05-06T20:07:39.996Z,63.34
2023-05-06T20:10:28.899Z,63.82
2023-05-06T20:13:17.866Z,64.39
2023-05-06T20:16:06.781Z,64.26
2023-05-06T20:18:55.354Z,64.38
2023-05-06T20:21:45.094Z,64.18
2023-05-06T20:24:34.748Z,65.10
2023-05-06T20:27:23.188Z,65.43
2023-05-06T20:30:12.491Z,65.61
2023-05-06T20:33:01.256Z,65.40
2023-05-06T20:35:51.020Z,66.54
2023-05-06T20:38:40.794Z,67.43
2023-05-06T20:41:29.133Z,67.07
2023-05-06T20:44:17.448Z,66.58
2023-05-06T20:47:10.465Z,67.31
2023-05-06T20:49:59.140Z,67.69
2023-05-06T20:52:48.216Z,67.16
2023-05-06T20:55:38.019Z,67.45
2023-05-06T20:58:28.566Z,68.44
2023-05-06T21:01:17.082Z,68.39
2023-05-06T21:04:06.341Z,68.33
2023-05-06T21:06:54.730Z,68.95
2023-05-06T21:09:43.138Z,68.29
2023-05-06T21:12:34.076Z,68.53
2023-05-06T21:15:22.508Z,69.04
2023-05-06T21:18:10.962Z,68.93
2023-05-06T21:20:59.768Z,69.11
2023-05-06T21:23:48.121Z,69.89
2023-05-06T21:26:36.728Z,70.33
2023-05-06T21:29:26.418Z,70.69
2023-05-06T21:32:15.033Z,70.66
2023-05-06T21:35:04.035Z,70.37
2023-05-06T21:37:53.024Z,69.81
2023-05-06T21:40:41.386Z,69.78
2023-05-06T21:43:31.349Z,70.00
2023-05-06T21:46:21.762Z,70.39
2023-05-06T21:49:10.559Z,70.91
2023-05-06T21:51:58.967Z,71.20
2023-05-06T21:54:47.341Z,71.46
2023-05-06T21:57:35.721Z,70.78
2023-05-06T22:00:24.150Z,70.66
2023-05-06T22:03:13.971Z,70.82
2023-05-06T22:06:02.332Z,71.18
2023-05-06T22:08:50.661Z,71.67
2023-05-06T22:11:39.101Z,71.20
2023-05-06T22:14:37.342Z,71.83
2023-05-06T22:17:29.164Z,72.08
2023-05-06T22:20:18.935Z,72.62
2023-05-06T22:23:07.487Z,72.29
2023-05-06T22:25:56.121Z,73.74
2023-05-06T22:28:45.479Z,73.33
2023-05-06T22:31:33.929Z,73.66
2023-05-06T22:34:22.238Z,73.64
2023-05-06T22:37:12.219Z,73.76
2023-05-06T22:40:00.565Z,74.05
2023-05-06T22:42:49.048Z,74.22
2023-05-06T22:45:37.664Z,73.87
2023-05-06T22:48:26.122Z,74.05
2023-05-06T22:51:15.776Z,74.11
2023-05-06T22:54:05.483Z,73.76
2023-05-06T22:56:53.873Z,73.75
2023-05-06T22:59:42.622Z,74.23
2023-05-06T23:02:30.964Z,75.20
2023-05-06T23:05:19.347Z,74.35
2023-05-06T23:08:07.696Z,74.64
2023-05-06T23:10:57.360Z,74.34
2023-05-06T23:13:45.745Z,74.43
2023-05-06T23:16:34.193Z,73.82
2023-05-06T23:19:24.889Z,74.60
2023-05-06T23:22:14.196Z,74.45
2023-05-06T23:25:02.586Z,74.69
2023-05-06T23:27:52.468Z,74.65
2023-05-06T23:30:41.073Z,74.15
2023-05-06T23:33:29.407Z,74.40
2023-05-06T23:36:17.804Z,74.71
2023-05-06T23:39:06.118Z,74.24
2023-05-06T23:41:54.450Z,74.07
2023-05-06T23:44:44.110Z,74.52
2023-05-06T23:47:32.464Z,74.58
2023-05-06T23:50:20.868Z,74.46
2023-05-06T23:53:09.238Z,74.58
2023-05-06T23:55:57.520Z,74.60
2023-05-06T23:58:45.898Z,73.94
